createdAt,value
2019-04-07T00:01:52.645Z,58.33
2019-04-07T00:04:22.511Z,58.41
2019-04-07T00:06:52.274Z,58.45
2019-04-07T00:09:22.272Z,58.50
2019-04-07T00:11:52.105Z,58.51
2019-04-07T00:14:21.775Z,58.56
2019-04-07T00:16:51.807Z,58.61
2019-04-07T00:19:21.914Z,58.66
2019-04-07T00:21:51.712Z,58.72
2019-04-07T00:24:21.886Z,58.77
2019-04-07T00:26:52.587Z,58.82
2019-04-07T00:29:22.816Z,58.88
2019-04-07T00:31:52.567Z,58.95
2019-04-07T00:34:22.268Z,59.00
2019-04-07T00:36:52.188Z,59.06
2019-04-07T00:39:21.726Z,59.13
2019-04-07T00:41:51.966Z,59.18
2019-04-07T00:44:21.616Z,59.24
2019-04-07T00:46:51.197Z,59.29
2019-04-07T00:49:20.704Z,59.33
2019-04-07T00:51:51.613Z,59.39
2019-04-07T00:54:21.489Z,59.46
2019-04-07T00:56:51.181Z,59.50
2019-04-07T00:59:21.968Z,59.54
2019-04-07T01:01:51.585Z,59.61
2019-04-07T01:04:22.156Z,59.69
2019-04-07T01:06:52.927Z,59.73
2019-04-07T01:09:22.533Z,59.78
2019-04-07T01:11:52.423Z,59.80
2019-04-07T01:14:23.629Z,59.85
2019-04-07T01:16:53.158Z,59.91
2019-04-07T01:19:22.780Z,59.97
2019-04-07T01:21:52.162Z,60.01
2019-04-07T01:24:22.606Z,60.07
2019-04-07T01:26:52.562Z,60.11
2019-04-07T01:29:22.115Z,60.16
2019-04-07T01:31:51.813Z,60.21
2019-04-07T01:34:21.544Z,60.28
2019-04-07T01:36:51.033Z,60.36
2019-04-07T01:39:22.041Z,60.41
2019-04-07T01:41:59.554Z,60.47
2019-04-07T01:44:30.967Z,60.51
2019-04-07T01:47:11.349Z,60.58
2019-04-07T01:49:48.935Z,60.63
2019-04-07T01:52:21.096Z,60.69
2019-04-07T01:54:58.282Z,60.75
2019-04-07T01:57:35.650Z,60.78
2019-04-07T02:00:11.290Z,60.84
2019-04-07T02:02:45.569Z,60.88
2019-04-07T02:05:25.345Z,60.91
2019-04-07T02:08:12.007Z,60.98
2019-04-07T02:10:46.084Z,61.03
2019-04-07T02:13:33.892Z,61.11
2019-04-07T02:16:05.337Z,61.16
2019-04-07T02:18:51.296Z,61.22
2019-04-07T02:21:31.598Z,61.26
2019-04-07T02:24:02.744Z,61.33
2019-04-07T02:26:36.892Z,61.38
2019-04-07T02:29:25.563Z,61.43
2019-04-07T02:32:03.608Z,61.47
2019-04-07T02:34:47.361Z,61.51
2019-04-07T02:37:19.298Z,61.60
2019-04-07T02:39:53.336Z,61.64
2019-04-07T02:42:25.058Z,61.71
2019-04-07T02:44:57.343Z,61.74
2019-04-07T02:47:41.884Z,61.80
2019-04-07T02:50:15.493Z,61.83
2019-04-07T02:52:47.373Z,61.89
2019-04-07T02:55:35.619Z,61.95
2019-04-07T02:58:07.794Z,61.99
2019-04-07T03:00:41.879Z,62.04
2019-04-07T03:03:14.055Z,62.11
2019-04-07T03:05:48.518Z,62.12
2019-04-07T03:08:35.601Z,62.18
2019-04-07T03:11:12.266Z,62.21
2019-04-07T03:13:52.499Z,62.22
2019-04-07T03:16:26.681Z,62.28
2019-04-07T03:19:15.123Z,62.32
2019-04-07T03:21:55.598Z,62.36
2019-04-07T03:24:33.566Z,62.40
2019-04-07T03:27:08.028Z,62.43
2019-04-07T03:29:41.952Z,62.45
2019-04-07T03:32:25.869Z,62.50
2019-04-07T03:35:16.027Z,62.56
2019-04-07T03:37:53.216Z,62.59
2019-04-07T03:40:24.563Z,62.67
2019-04-07T03:42:59.177Z,62.72
2019-04-07T03:45:44.038Z,62.79
2019-04-07T03:48:15.798Z,62.85
2019-04-07T03:50:46.961Z,62.89
2019-04-07T03:53:34.404Z,62.95
2019-04-07T03:56:08.481Z,63.02
2019-04-07T03:58:56.005Z,63.09
2019-04-07T04:01:33.699Z,63.14
2019-04-07T04:04:16.011Z,63.19
2019-04-07T04:07:00.129Z,63.26
2019-04-07T04:09:49.807Z,63.30
2019-04-07T04:12:21.397Z,63.33
2019-04-07T04:14:55.707Z,63.38
2019-04-07T04:17:25.316Z,63.42
2019-04-07T04:19:55.885Z,63.48
2019-04-07T04:22:26.047Z,63.52
2019-04-07T04:24:56.055Z,63.56
2019-04-07T04:27:25.562Z,63.61
2019-04-07T04:29:55.319Z,63.64
2019-04-07T04:32:25.524Z,63.69
2019-04-07T04:34:55.250Z,63.72
2019-04-07T04:37:37.859Z,63.74
2019-04-07T04:39:56.058Z,63.80
2019-04-07T04:42:26.814Z,63.84
2019-04-07T04:44:56.905Z,63.87
2019-04-07T04:47:27.388Z,63.90
2019-04-07T04:49:57.710Z,63.94
2019-04-07T04:52:27.719Z,63.99
2019-04-07T04:54:57.519Z,64.03
2019-04-07T04:57:27.160Z,64.05
2019-04-07T04:59:56.712Z,64.09
2019-04-07T05:02:27.530Z,64.11
2019-04-07T05:04:57.506Z,64.13
2019-04-07T05:11:16.735Z,64.17
2019-04-07T05:13:26.016Z,64.20
2019-04-07T05:16:04.983Z,64.24
2019-04-07T05:18:35.980Z,64.25
2019-04-07T05:21:08.523Z,64.27
2019-04-07T05:23:38.498Z,64.31
2019-04-07T05:26:10.076Z,64.31
2019-04-07T05:35:06.370Z,64.39
2019-04-07T05:37:38.353Z,64.41
2019-04-07T05:40:11.414Z,64.41
2019-04-07T05:42:51.685Z,64.41
2019-04-07T05:45:21.478Z,64.39
2019-04-07T05:47:52.507Z,64.40
2019-04-07T05:50:22.338Z,64.41
2019-04-07T05:52:51.841Z,64.40
2019-04-07T05:55:23.946Z,64.40
2019-04-07T05:57:53.148Z,64.42
2019-04-07T06:00:23.427Z,64.37
2019-04-07T06:02:53.337Z,64.37
2019-04-07T06:05:22.931Z,64.39
2019-04-07T06:07:52.747Z,64.37
2019-04-07T06:10:27.610Z,64.38
2019-04-07T06:12:55.383Z,64.34
2019-04-07T06:15:25.803Z,64.33
2019-04-07T06:17:58.795Z,64.30
2019-04-07T06:20:26.791Z,64.30
2019-04-07T06:22:56.517Z,64.30
2019-04-07T06:25:27.217Z,64.27
2019-04-07T06:27:57.716Z,64.24
2019-04-07T06:30:30.120Z,64.22
2019-04-07T06:32:59.152Z,64.18
2019-04-07T06:35:28.765Z,64.17
2019-04-07T06:38:04.063Z,64.14
2019-04-07T06:40:30.615Z,64.11
2019-04-07T06:43:06.389Z,64.07
2019-04-07T06:45:46.431Z,64.05
2019-04-07T06:48:16.609Z,64.02
2019-04-07T06:50:54.569Z,64.00
2019-04-07T06:53:35.673Z,63.95
2019-04-07T06:56:12.950Z,63.93
2019-04-07T06:58:53.259Z,63.90
2019-04-07T07:01:30.715Z,63.91
2019-04-07T07:04:10.885Z,63.88
2019-04-07T07:06:56.870Z,63.84
2019-04-07T07:09:28.845Z,63.82
2019-04-07T07:12:22.701Z,63.79
2019-04-07T07:14:52.774Z,63.76
2019-04-07T07:17:33.191Z,63.73
2019-04-07T07:20:07.293Z,63.71
2019-04-07T07:22:40.267Z,63.66
2019-04-07T07:25:12.401Z,63.62
2019-04-07T07:27:43.102Z,63.57
2019-04-07T07:30:15.166Z,63.50
2019-04-07T07:32:44.283Z,63.46
2019-04-07T07:35:15.317Z,63.44
2019-04-07T07:37:45.529Z,63.39
2019-04-07T07:40:17.945Z,63.34
2019-04-07T07:42:49.035Z,63.30
2019-04-07T07:45:18.666Z,63.27
2019-04-07T07:47:51.333Z,63.20
2019-04-07T07:50:20.141Z,63.15
2019-04-07T07:52:53.407Z,63.09
2019-04-07T07:55:21.946Z,63.02
2019-04-07T07:57:56.776Z,62.94
2019-04-07T08:00:23.607Z,62.88
2019-04-07T08:02:53.817Z,62.83
2019-04-07T08:05:24.832Z,62.75
2019-04-07T08:07:55.172Z,62.70
2019-04-07T08:10:25.413Z,62.66
2019-04-07T08:12:56.328Z,62.63
2019-04-07T08:15:30.995Z,62.54
2019-04-07T08:17:57.383Z,62.46
2019-04-07T08:20:30.589Z,62.41
2019-04-07T08:23:00.667Z,62.37
2019-04-07T08:25:30.362Z,62.31
2019-04-07T08:28:02.189Z,62.25
2019-04-07T08:30:31.797Z,62.16
2019-04-07T08:33:02.402Z,62.13
2019-04-07T08:35:37.783Z,62.01
2019-04-07T08:38:05.982Z,61.97
2019-04-07T08:40:38.141Z,61.85
2019-04-07T08:43:08.287Z,61.76
2019-04-07T08:45:38.189Z,61.69
2019-04-07T08:48:08.969Z,61.61
2019-04-07T08:50:38.664Z,61.52
2019-04-07T08:53:14.099Z,61.41
2019-04-07T08:55:47.772Z,61.33
2019-04-07T08:58:24.893Z,61.21
2019-04-07T09:00:51.601Z,61.12
2019-04-07T09:03:20.826Z,61.03
2019-04-07T09:05:51.392Z,60.96
2019-04-07T09:08:21.034Z,60.85
2019-04-07T09:11:04.639Z,60.73
2019-04-07T09:13:34.594Z,60.60
2019-04-07T09:16:06.091Z,60.50
2019-04-07T09:19:02.538Z,60.41
2019-04-07T09:21:47.546Z,60.31
2019-04-07T09:24:32.770Z,60.20
2019-04-07T09:27:23.398Z,60.07
2019-04-07T09:30:01.434Z,59.94
2019-04-07T09:32:43.840Z,59.79
2019-04-07T09:35:33.382Z,59.70
2019-04-07T09:38:11.014Z,59.55
2019-04-07T09:40:58.557Z,59.41
2019-04-07T09:43:30.622Z,59.31
2019-04-07T09:46:05.041Z,59.20
2019-04-07T09:48:52.743Z,59.08
2019-04-07T09:51:24.373Z,58.96
2019-04-07T09:54:01.717Z,58.85
2019-04-07T09:56:33.691Z,58.73
2019-04-07T09:59:07.929Z,58.65
2019-04-07T10:01:54.183Z,58.53
2019-04-07T10:04:42.277Z,58.46
2019-04-07T10:07:30.494Z,58.34
2019-04-07T10:10:13.943Z,58.25
2019-04-07T10:12:58.361Z,58.14
2019-04-07T10:15:32.855Z,58.05
2019-04-07T10:18:07.543Z,57.92
2019-04-07T10:20:46.706Z,57.77
2019-04-07T10:23:24.226Z,57.69
2019-04-07T10:25:56.120Z,57.58
2019-04-07T10:28:41.810Z,57.48
2019-04-07T10:31:18.421Z,57.35
2019-04-07T10:34:04.001Z,57.26
2019-04-07T10:36:44.971Z,57.14
2019-04-07T10:39:19.874Z,57.02
2019-04-07T10:41:56.924Z,56.87
2019-04-07T10:44:34.179Z,56.73
2019-04-07T10:47:21.653Z,56.56
2019-04-07T10:50:07.497Z,56.44
2019-04-07T10:52:54.516Z,56.30
2019-04-07T10:55:28.926Z,56.18
2019-04-07T10:58:09.139Z,56.00
2019-04-07T11:00:53.831Z,55.86
2019-04-07T11:03:35.101Z,55.77
2019-04-07T11:06:07.309Z,55.66
2019-04-07T11:08:55.534Z,55.57
2019-04-07T11:11:32.549Z,55.46
2019-04-07T11:14:06.890Z,55.35
2019-04-07T11:16:54.928Z,55.27
2019-04-07T11:19:29.270Z,55.15
2019-04-07T11:22:03.127Z,55.04
2019-04-07T11:24:49.630Z,54.94
2019-04-07T11:27:21.134Z,54.83
2019-04-07T11:30:01.574Z,54.71
2019-04-07T11:32:32.872Z,54.61
2019-04-07T11:35:21.123Z,54.50
2019-04-07T11:37:55.395Z,54.36
2019-04-07T11:40:49.602Z,54.28
2019-04-07T11:43:17.712Z,54.21
2019-04-07T11:45:58.429Z,54.12
2019-04-07T11:48:28.005Z,54.03
2019-04-07T11:51:03.314Z,54.00
2019-04-07T11:53:41.489Z,53.91
2019-04-07T11:56:29.647Z,53.85
2019-04-07T11:59:08.833Z,53.78
2019-04-07T12:01:43.667Z,53.73
2019-04-07T12:04:28.345Z,53.67
2019-04-07T12:07:19.098Z,53.61
2019-04-07T12:10:09.720Z,53.56
2019-04-07T12:12:44.108Z,53.50
2019-04-07T12:15:22.715Z,53.44
2019-04-07T12:17:55.984Z,53.43
2019-04-07T12:20:45.175Z,53.37
2019-04-07T12:23:27.464Z,53.32
2019-04-07T12:26:02.144Z,53.27
2019-04-07T12:28:35.571Z,53.23
2019-04-07T12:31:13.860Z,53.21
2019-04-07T12:34:14.362Z,53.17
2019-04-07T12:36:56.234Z,53.15
2019-04-07T12:39:33.691Z,53.13
2019-04-07T12:42:10.201Z,53.09
2019-04-07T12:44:44.120Z,53.09
2019-04-07T12:47:41.048Z,53.05
2019-04-07T12:50:28.717Z,53.04
2019-04-07T12:53:16.930Z,53.02
2019-04-07T12:56:03.547Z,53.05
2019-04-07T12:58:35.579Z,53.01
2019-04-07T13:01:19.298Z,52.98
2019-04-07T13:04:04.670Z,52.96
2019-04-07T13:06:45.208Z,52.94
2019-04-07T13:09:32.041Z,52.92
2019-04-07T13:12:10.033Z,52.91
2019-04-07T13:14:56.568Z,52.87
2019-04-07T13:17:34.560Z,52.87
2019-04-07T13:20:18.994Z,52.83
2019-04-07T13:23:06.030Z,52.80
2019-04-07T13:25:43.436Z,52.77
2019-04-07T13:28:30.604Z,52.75
2019-04-07T13:31:04.950Z,52.70
2019-04-07T13:33:42.417Z,52.66
2019-04-07T13:36:20.345Z,52.67
2019-04-07T13:39:00.915Z,52.63
2019-04-07T13:41:44.948Z,52.60
2019-04-07T13:44:16.185Z,52.56
2019-04-07T13:47:06.383Z,52.54
2019-04-07T13:49:55.277Z,52.52
2019-04-07T13:52:41.945Z,52.47
2019-04-07T13:55:30.575Z,52.45
2019-04-07T14:07:16.929Z,52.31
2019-04-07T14:10:04.394Z,52.27
2019-04-07T14:12:55.633Z,52.26
2019-04-07T14:15:27.086Z,52.22
2019-04-07T14:18:01.210Z,52.18
2019-04-07T14:20:40.478Z,52.16
2019-04-07T14:23:12.244Z,52.13
2019-04-07T14:25:48.262Z,52.14
2019-04-07T14:28:20.113Z,52.14
2019-04-07T14:30:52.145Z,52.10
2019-04-07T14:33:39.242Z,52.11
2019-04-07T14:36:17.221Z,52.11
2019-04-07T14:38:48.567Z,52.10
2019-04-07T14:41:35.707Z,52.11
2019-04-07T14:44:10.128Z,52.10
2019-04-07T14:46:47.663Z,52.11
2019-04-07T14:49:34.161Z,52.12
2019-04-07T14:52:11.257Z,52.15
2019-04-07T14:54:56.173Z,52.16
2019-04-07T14:57:31.376Z,52.20
2019-04-07T15:00:15.270Z,52.21
2019-04-07T15:05:56.326Z,52.25
2019-04-07T15:08:36.994Z,52.27
2019-04-07T15:11:23.759Z,52.28
2019-04-07T15:13:56.916Z,52.31
2019-04-07T15:16:26.311Z,52.34
2019-04-07T15:19:06.560Z,52.37
2019-04-07T15:21:37.757Z,52.38
2019-04-07T15:24:11.609Z,52.40
2019-04-07T15:26:41.425Z,52.42
2019-04-07T15:29:11.175Z,52.46
2019-04-07T15:31:41.883Z,52.48
2019-04-07T15:34:14.137Z,52.52
2019-04-07T15:36:43.987Z,52.55
2019-04-07T15:39:13.826Z,52.58
2019-04-07T15:41:44.482Z,52.62
2019-04-07T15:44:18.148Z,52.66
2019-04-07T15:46:52.378Z,52.70
2019-04-07T15:49:23.501Z,52.73
2019-04-07T15:51:52.630Z,52.76
2019-04-07T15:54:24.208Z,52.79
2019-04-07T15:56:54.028Z,52.83
2019-04-07T15:59:24.773Z,52.86
2019-04-07T16:01:56.191Z,52.91
2019-04-07T16:04:28.400Z,52.93
2019-04-07T16:06:57.753Z,52.97
2019-04-07T16:09:36.056Z,53.02
2019-04-07T16:12:00.290Z,53.07
2019-04-07T16:14:30.960Z,53.10
2019-04-07T16:17:04.139Z,53.16
2019-04-07T16:19:39.688Z,53.21
2019-04-07T16:22:05.018Z,53.23
2019-04-07T16:24:34.819Z,53.29
2019-04-07T16:27:06.715Z,53.36
2019-04-07T16:29:36.478Z,53.40
2019-04-07T16:32:06.430Z,53.46
2019-04-07T16:34:42.786Z,53.52
2019-04-07T16:37:15.730Z,53.57
2019-04-07T16:39:53.148Z,53.62
2019-04-07T16:42:22.941Z,53.67
2019-04-07T16:44:53.756Z,53.71
2019-04-07T16:47:35.841Z,53.79
2019-04-07T16:50:51.116Z,53.84
2019-04-07T16:53:52.086Z,53.88
2019-04-07T16:59:36.647Z,54.02
2019-04-07T17:02:06.736Z,54.09
2019-04-07T17:04:39.190Z,54.16
2019-04-07T17:07:15.289Z,54.24
2019-04-07T17:09:48.862Z,54.27
2019-04-07T17:12:20.406Z,54.33
2019-04-07T17:14:54.311Z,54.40
2019-04-07T17:17:25.038Z,54.44
2019-04-07T17:19:57.349Z,54.51
2019-04-07T17:22:27.225Z,54.58
2019-04-07T17:25:00.337Z,54.64
2019-04-07T17:27:32.777Z,54.71
2019-04-07T17:30:05.374Z,54.77
2019-04-07T17:32:39.149Z,54.83
2019-04-07T17:35:17.816Z,54.91
2019-04-07T17:37:48.220Z,54.97
2019-04-07T17:40:19.596Z,55.04
2019-04-07T17:42:52.771Z,55.12
2019-04-07T17:45:23.567Z,55.18
2019-04-07T17:48:05.568Z,55.23
2019-04-07T17:50:34.256Z,55.31
2019-04-07T17:53:15.944Z,55.40
2019-04-07T17:56:00.159Z,55.45
2019-04-07T17:58:47.810Z,55.52
2019-04-07T18:01:21.677Z,55.59
2019-04-07T18:04:01.356Z,55.68
2019-04-07T18:06:49.474Z,55.74
2019-04-07T18:09:29.835Z,55.81
2019-04-07T18:12:12.807Z,55.91
2019-04-07T18:14:43.740Z,55.96
2019-04-07T18:17:21.530Z,56.05
2019-04-07T18:19:59.248Z,56.09
2019-04-07T18:22:47.715Z,56.15
2019-04-07T18:25:33.083Z,56.22
2019-04-07T18:28:04.085Z,56.30
2019-04-07T18:30:45.183Z,56.37
2019-04-07T18:33:33.559Z,56.43
2019-04-07T18:36:11.990Z,56.49
2019-04-07T18:39:01.148Z,56.55
2019-04-07T18:41:43.602Z,56.62
2019-04-07T18:44:27.258Z,56.69
2019-04-07T18:47:01.482Z,56.78
2019-04-07T18:49:36.542Z,56.84
2019-04-07T18:52:20.025Z,56.92
2019-04-07T18:55:08.983Z,56.97
2019-04-07T18:57:41.660Z,57.02
2019-04-07T19:00:13.699Z,57.11
2019-04-07T19:02:46.179Z,57.16
2019-04-07T19:05:25.140Z,57.22
2019-04-07T19:08:12.827Z,57.27
2019-04-07T19:11:10.391Z,57.32
2019-04-07T19:14:01.281Z,57.42
2019-04-07T19:16:27.957Z,57.46
2019-04-07T19:19:08.350Z,57.52
2019-04-07T19:21:43.452Z,57.56
2019-04-07T19:24:19.266Z,57.64
2019-04-07T19:27:11.990Z,57.68
2019-04-07T19:29:46.060Z,57.74
2019-04-07T19:32:34.132Z,57.81
2019-04-07T19:35:23.187Z,57.86
2019-04-07T19:38:07.570Z,57.91
2019-04-07T19:40:47.832Z,57.96
2019-04-07T19:43:25.110Z,58.02
2019-04-07T19:46:00.537Z,58.08
2019-04-07T19:48:50.412Z,58.12
2019-04-07T19:51:22.597Z,58.17
2019-04-07T19:53:54.286Z,58.22
2019-04-07T19:56:37.544Z,58.26
2019-04-07T19:59:14.611Z,58.30
2019-04-07T20:01:48.840Z,58.36
2019-04-07T20:04:22.936Z,58.41
2019-04-07T20:06:57.899Z,58.44
2019-04-07T20:09:44.104Z,58.50
2019-04-07T20:12:14.994Z,58.55
2019-04-07T20:15:08.871Z,58.60
2019-04-07T20:17:35.196Z,58.65
2019-04-07T20:20:09.999Z,58.70
2019-04-07T20:22:44.070Z,58.76
2019-04-07T20:25:27.242Z,58.81
2019-04-07T20:27:59.428Z,58.88
2019-04-07T20:30:49.542Z,58.91
2019-04-07T20:33:29.928Z,58.98
2019-04-07T20:36:04.925Z,59.04
2019-04-07T20:38:36.066Z,59.10
2019-04-07T20:41:23.959Z,59.16
2019-04-07T20:43:59.054Z,59.23
2019-04-07T20:46:30.493Z,59.28
2019-04-07T20:49:13.689Z,59.32
2019-04-07T20:52:03.003Z,59.37
2019-04-07T20:54:47.617Z,59.45
2019-04-07T20:57:37.251Z,59.50
2019-04-07T21:00:09.182Z,59.58
2019-04-07T21:03:06.482Z,59.63
2019-04-07T21:05:29.406Z,59.69
2019-04-07T21:08:17.835Z,59.74
2019-04-07T21:10:58.096Z,59.81
2019-04-07T21:13:39.590Z,59.87
2019-04-07T21:16:29.553Z,59.91
2019-04-07T21:19:12.389Z,59.99
2019-04-07T21:21:45.474Z,60.04
2019-04-07T21:24:20.027Z,60.12
2019-04-07T21:26:51.974Z,60.16
2019-04-07T21:29:35.152Z,60.25
2019-04-07T21:32:08.871Z,60.31
2019-04-07T21:34:45.028Z,60.38
2019-04-07T21:37:28.469Z,60.45
2019-04-07T21:40:07.557Z,60.51
2019-04-07T21:42:38.658Z,60.58
2019-04-07T21:45:13.413Z,60.65
2019-04-07T21:47:48.200Z,60.71
2019-04-07T21:50:22.319Z,60.81
2019-04-07T21:52:55.312Z,60.85
2019-04-07T21:55:28.848Z,60.92
2019-04-07T21:58:00.868Z,60.96
2019-04-07T22:00:48.922Z,61.03
2019-04-07T22:03:24.103Z,61.08
2019-04-07T22:05:59.441Z,61.16
2019-04-07T22:08:30.762Z,61.20
2019-04-07T22:11:00.344Z,61.26
2019-04-07T22:13:32.857Z,61.33
2019-04-07T22:16:03.879Z,61.39
2019-04-07T22:18:32.493Z,61.48
2019-04-07T22:21:02.240Z,61.55
2019-04-07T22:23:32.599Z,61.60
2019-04-07T22:26:02.556Z,61.63
2019-04-07T22:28:33.209Z,61.70
2019-04-07T22:31:04.484Z,61.75
2019-04-07T22:33:34.968Z,61.80
2019-04-07T22:36:04.627Z,61.86
2019-04-07T22:38:34.217Z,61.88
2019-04-07T22:41:06.773Z,61.95
2019-04-07T22:43:35.490Z,62.03
2019-04-07T22:46:12.691Z,62.08
2019-04-07T22:48:36.492Z,62.13
2019-04-07T22:51:09.983Z,62.19
2019-04-07T22:53:37.427Z,62.23
2019-04-07T22:56:07.925Z,62.32
2019-04-07T22:58:38.303Z,62.38
2019-04-07T23:01:08.978Z,62.43
2019-04-07T23:03:39.111Z,62.50
2019-04-07T23:06:09.406Z,62.56
2019-04-07T23:08:39.073Z,62.63
2019-04-07T23:11:08.495Z,62.68
2019-04-07T23:13:37.941Z,62.73
2019-04-07T23:16:13.497Z,62.80
2019-04-07T23:18:38.723Z,62.86
2019-04-07T23:21:08.285Z,62.92
2019-04-07T23:23:37.846Z,62.98
2019-04-07T23:26:07.565Z,63.02
2019-04-07T23:28:37.094Z,63.06
2019-04-07T23:31:07.520Z,63.11
2019-04-07T23:33:38.696Z,63.19
2019-04-07T23:36:08.237Z,63.24
2019-04-07T23:38:37.867Z,63.28
2019-04-07T23:41:07.373Z,63.36
2019-04-07T23:43:37.631Z,63.43
2019-04-07T23:46:19.432Z,63.47
2019-04-07T23:48:40.245Z,63.54
2019-04-07T23:51:10.231Z,63.58
2019-04-07T23:54:11.303Z,63.63
2019-04-07T23:56:43.488Z,63.71
2019-04-07T23:59:14.661Z,63.76
